createdAt,value
2023-12-17T00:00:49.320Z,16.63
2023-12-17T00:03:20.120Z,15.35
2023-12-17T00:05:49.203Z,11.80
2023-12-17T00:08:21.416Z,15.32
2023-12-17T00:10:50.810Z,15.68
2023-12-17T00:13:18.217Z,16.65
2023-12-17T00:15:44.964Z,14.10
2023-12-17T00:18:12.982Z,13.75
2023-12-17T00:20:40.098Z,16.58
2023-12-17T00:23:09.813Z,14.93
2023-12-17T00:25:37.043Z,16.10
2023-12-17T00:28:03.829Z,19.60
2023-12-17T00:30:31.431Z,16.70
2023-12-17T00:32:59.054Z,19.65
2023-12-17T00:35:25.874Z,24.45
2023-12-17T00:37:52.645Z,25.08
2023-12-17T00:40:22.282Z,21.60
2023-12-17T00:42:49.032Z,19.60
2023-12-17T00:45:15.788Z,17.60
2023-12-17T00:47:42.897Z,16.88
2023-12-17T00:50:12.717Z,21.45
2023-12-17T00:52:40.183Z,27.65
2023-12-17T00:55:07.562Z,18.05
2023-12-17T00:57:34.609Z,20.85
2023-12-17T01:00:01.505Z,14.05
2023-12-17T01:02:28.422Z,17.48
2023-12-17T01:04:55.177Z,18.27
2023-12-17T01:07:24.625Z,17.95
2023-12-17T01:09:51.432Z,18.13
2023-12-17T01:12:21.230Z,19.38
2023-12-17T01:14:50.975Z,20.00
2023-12-17T01:17:17.766Z,17.77
2023-12-17T01:19:48.015Z,19.13
2023-12-17T01:22:18.562Z,16.20
2023-12-17T01:24:45.433Z,15.07
2023-12-17T01:27:12.187Z,18.17
2023-12-17T01:29:41.764Z,25.48
2023-12-17T01:32:10.253Z,30.77
2023-12-17T01:34:39.879Z,20.98
2023-12-17T01:37:14.761Z,20.50
2023-12-17T01:39:41.498Z,21.38
2023-12-17T01:42:10.410Z,18.52
2023-12-17T01:44:37.184Z,25.58
2023-12-17T01:47:04.044Z,20.92
2023-12-17T01:49:32.153Z,20.92
2023-12-17T01:51:59.011Z,23.98
2023-12-17T01:54:26.065Z,19.45
2023-12-17T01:56:53.802Z,18.63
2023-12-17T01:59:20.629Z,21.63
2023-12-17T02:01:48.141Z,20.90
2023-12-17T02:04:15.416Z,18.23
2023-12-17T02:06:42.733Z,17.15
2023-12-17T02:09:09.736Z,16.77
2023-12-17T02:11:36.682Z,20.73
2023-12-17T02:14:06.183Z,18.27
2023-12-17T02:16:33.718Z,25.75
2023-12-17T02:19:02.721Z,23.88
2023-12-17T02:21:29.573Z,23.85
2023-12-17T02:23:56.891Z,20.23
2023-12-17T02:26:23.634Z,17.80
2023-12-17T02:28:50.867Z,18.15
2023-12-17T02:31:17.748Z,20.15
2023-12-17T02:33:44.702Z,18.67
2023-12-17T02:36:11.679Z,23.25
2023-12-17T02:38:38.889Z,17.60
2023-12-17T02:41:05.694Z,24.15
2023-12-17T02:43:32.881Z,18.27
2023-12-17T02:45:59.627Z,20.10
2023-12-17T02:48:27.838Z,24.60
2023-12-17T02:50:54.880Z,23.80
2023-12-17T02:53:21.648Z,18.45
2023-12-17T02:55:48.849Z,18.95
2023-12-17T02:58:16.654Z,19.25
2023-12-17T03:00:43.631Z,17.65
2023-12-17T03:03:10.895Z,21.30
2023-12-17T03:05:37.841Z,20.80
2023-12-17T03:08:05.040Z,20.75
2023-12-17T03:10:31.803Z,22.35
2023-12-17T03:12:58.971Z,25.38
2023-12-17T03:15:25.749Z,22.58
2023-12-17T03:17:53.071Z,16.15
2023-12-17T03:20:19.840Z,16.58
2023-12-17T03:22:46.813Z,19.65
2023-12-17T03:25:14.418Z,19.73
2023-12-17T03:27:45.153Z,15.15
2023-12-17T03:30:12.364Z,19.73
2023-12-17T03:32:39.300Z,18.95
2023-12-17T03:35:06.799Z,19.42
2023-12-17T03:37:33.515Z,19.73
2023-12-17T03:40:00.361Z,17.73
2023-12-17T03:42:27.201Z,21.70
2023-12-17T03:44:53.981Z,17.30
2023-12-17T03:47:26.795Z,18.63
2023-12-17T03:49:56.330Z,29.80
2023-12-17T03:52:23.041Z,20.45
2023-12-17T03:54:49.796Z,21.23
2023-12-17T03:57:16.910Z,17.38
2023-12-17T03:59:43.759Z,17.92
2023-12-17T04:02:10.937Z,17.63
2023-12-17T04:04:37.659Z,19.30
2023-12-17T04:07:04.865Z,21.27
2023-12-17T04:09:31.689Z,21.30
2023-12-17T04:11:58.749Z,16.73
2023-12-17T04:14:28.202Z,21.88
2023-12-17T04:16:54.969Z,20.23
2023-12-17T04:19:29.027Z,17.58
2023-12-17T04:21:55.824Z,19.30
2023-12-17T04:24:23.026Z,20.23
2023-12-17T04:26:53.124Z,16.92
2023-12-17T04:29:22.938Z,19.88
2023-12-17T04:31:49.720Z,21.33
2023-12-17T04:34:16.922Z,20.33
2023-12-17T04:36:43.977Z,17.15
2023-12-17T04:39:16.715Z,16.65
2023-12-17T04:41:43.553Z,18.48
2023-12-17T04:44:10.854Z,20.50
2023-12-17T04:46:39.244Z,18.42
2023-12-17T04:49:06.154Z,19.38
2023-12-17T04:51:33.170Z,19.02
2023-12-17T04:53:59.871Z,21.25
2023-12-17T04:56:30.288Z,20.95
2023-12-17T04:58:56.985Z,21.17
2023-12-17T05:01:23.796Z,19.17
2023-12-17T05:03:50.992Z,18.65
2023-12-17T05:06:18.406Z,18.40
2023-12-17T05:08:45.234Z,19.73
2023-12-17T05:11:11.980Z,19.35
2023-12-17T05:13:38.710Z,16.73
2023-12-17T05:16:06.001Z,17.45
2023-12-17T05:18:32.927Z,18.95
2023-12-17T05:20:59.736Z,21.05
2023-12-17T05:23:26.969Z,18.40
2023-12-17T05:25:53.715Z,19.88
2023-12-17T05:28:20.558Z,18.60
2023-12-17T05:30:48.292Z,18.13
2023-12-17T05:33:15.219Z,19.23
2023-12-17T05:35:43.422Z,17.58
2023-12-17T05:38:10.214Z,17.42
2023-12-17T05:40:36.999Z,15.90
2023-12-17T05:43:04.801Z,15.98
2023-12-17T05:45:34.602Z,17.92
2023-12-17T05:48:01.504Z,14.50
2023-12-17T05:50:28.978Z,15.65
2023-12-17T05:52:55.713Z,14.60
2023-12-17T05:55:22.728Z,16.52
2023-12-17T05:57:51.261Z,15.35
2023-12-17T06:00:18.347Z,15.60
2023-12-17T06:02:45.240Z,15.13
2023-12-17T06:05:12.384Z,14.63
2023-12-17T06:07:39.425Z,15.10
2023-12-17T06:10:07.298Z,14.45
2023-12-17T06:12:34.114Z,16.92
2023-12-17T06:15:00.862Z,18.33
2023-12-17T06:17:28.216Z,18.33
2023-12-17T06:19:55.079Z,17.33
2023-12-17T06:22:21.941Z,15.70
2023-12-17T06:24:48.655Z,15.02
2023-12-17T06:27:19.249Z,13.93
2023-12-17T06:29:48.339Z,16.25
2023-12-17T06:32:15.115Z,14.55
2023-12-17T06:34:43.215Z,17.30
2023-12-17T06:37:11.875Z,18.02
2023-12-17T06:39:43.094Z,18.20
2023-12-17T06:42:11.127Z,15.65
2023-12-17T06:44:40.838Z,16.55
2023-12-17T06:47:17.914Z,17.10
2023-12-17T06:49:49.573Z,14.80
2023-12-17T06:52:16.873Z,15.23
2023-12-17T06:54:43.666Z,14.88
2023-12-17T06:57:13.082Z,12.90
2023-12-17T06:59:39.933Z,13.73
2023-12-17T07:02:06.770Z,18.33
2023-12-17T07:04:33.847Z,14.65
2023-12-17T07:07:00.741Z,15.02
2023-12-17T07:09:27.588Z,14.55
2023-12-17T07:11:54.869Z,12.55
2023-12-17T07:14:21.791Z,14.45
2023-12-17T07:16:50.322Z,15.70
2023-12-17T07:19:18.359Z,12.50
2023-12-17T07:21:45.754Z,12.32
2023-12-17T07:24:12.795Z,16.60
2023-12-17T07:26:39.790Z,15.52
2023-12-17T07:29:06.682Z,12.90
2023-12-17T07:31:33.450Z,13.27
2023-12-17T07:34:01.002Z,16.45
2023-12-17T07:36:28.003Z,15.82
2023-12-17T07:38:54.862Z,15.90
2023-12-17T07:41:22.606Z,16.38
2023-12-17T07:43:49.375Z,18.35
2023-12-17T07:46:16.418Z,15.50
2023-12-17T07:48:43.278Z,18.52
2023-12-17T07:51:10.148Z,21.95
2023-12-17T07:53:36.924Z,21.33
2023-12-17T07:56:03.978Z,20.48
2023-12-17T07:58:32.774Z,20.90
2023-12-17T08:00:59.706Z,20.95
2023-12-17T08:03:26.919Z,19.25
2023-12-17T08:05:54.153Z,19.17
2023-12-17T08:08:24.030Z,16.10
2023-12-17T08:10:54.176Z,22.40
2023-12-17T08:13:20.893Z,17.13
2023-12-17T08:15:47.628Z,16.90
2023-12-17T08:18:16.116Z,19.70
2023-12-17T08:20:42.972Z,18.23
2023-12-17T08:23:09.712Z,16.65
2023-12-17T08:25:39.539Z,17.55
2023-12-17T08:28:06.750Z,15.85
2023-12-17T08:30:39.151Z,14.50
2023-12-17T08:33:06.123Z,13.27
2023-12-17T08:35:39.094Z,15.43
2023-12-17T08:38:07.302Z,14.15
2023-12-17T08:40:41.045Z,13.05
2023-12-17T08:43:08.972Z,15.63
2023-12-17T08:45:36.258Z,15.35
2023-12-17T08:48:03.870Z,13.95
2023-12-17T08:50:30.947Z,15.63
2023-12-17T08:52:57.664Z,11.85
2023-12-17T08:55:25.701Z,11.90
2023-12-17T08:57:54.028Z,14.65
2023-12-17T09:00:21.099Z,9.57
2023-12-17T09:02:51.006Z,8.88
2023-12-17T09:05:20.486Z,7.57
2023-12-17T09:07:47.260Z,6.72
2023-12-17T09:10:13.976Z,9.82
2023-12-17T09:12:44.136Z,6.22
2023-12-17T09:15:11.069Z,8.32
2023-12-17T09:17:46.390Z,8.07
2023-12-17T09:20:14.959Z,10.25
2023-12-17T09:22:42.092Z,13.60
2023-12-17T09:25:12.396Z,4.60
2023-12-17T09:27:40.343Z,3.60
2023-12-17T09:30:10.495Z,3.42
2023-12-17T09:32:37.505Z,3.30
2023-12-17T09:35:04.670Z,4.55
2023-12-17T09:37:36.928Z,3.67
2023-12-17T09:40:05.038Z,4.07
2023-12-17T09:42:32.084Z,5.07
2023-12-17T09:45:00.268Z,3.90
2023-12-17T09:47:27.182Z,5.78
2023-12-17T09:49:54.042Z,5.88
2023-12-17T09:52:22.477Z,7.30
2023-12-17T09:54:50.412Z,4.53
2023-12-17T09:57:20.398Z,5.53
2023-12-17T09:59:48.392Z,8.40
2023-12-17T10:02:16.128Z,5.60
2023-12-17T10:04:43.364Z,6.13
2023-12-17T10:07:10.147Z,6.10
2023-12-17T10:09:37.175Z,6.97
2023-12-17T10:12:04.165Z,6.55
2023-12-17T10:14:31.594Z,5.65
2023-12-17T10:16:59.326Z,5.90
2023-12-17T10:19:29.764Z,6.57
2023-12-17T10:21:56.887Z,6.15
2023-12-17T10:24:39.479Z,6.97
2023-12-17T10:27:16.642Z,10.65
2023-12-17T10:29:45.185Z,9.10
2023-12-17T10:32:13.581Z,10.45
2023-12-17T10:34:43.600Z,12.90
2023-12-17T10:37:14.640Z,10.88
2023-12-17T10:39:41.583Z,11.13
2023-12-17T10:42:09.822Z,10.98
2023-12-17T10:44:40.004Z,13.80
2023-12-17T10:47:07.546Z,16.95
2023-12-17T10:49:35.326Z,18.23
2023-12-17T10:52:03.208Z,11.90
2023-12-17T10:54:31.884Z,17.45
2023-12-17T10:57:02.096Z,14.70
2023-12-17T10:59:38.222Z,28.17
2023-12-17T11:02:09.303Z,16.92
2023-12-17T11:04:36.196Z,14.07
2023-12-17T11:07:03.537Z,15.25
2023-12-17T11:09:30.508Z,15.00
2023-12-17T11:12:05.621Z,17.58
2023-12-17T11:14:32.963Z,19.15
2023-12-17T11:17:03.644Z,18.65
2023-12-17T11:19:30.894Z,17.63
2023-12-17T11:22:00.682Z,20.15
2023-12-17T11:24:27.539Z,16.50
2023-12-17T11:26:54.841Z,20.25
2023-12-17T11:29:39.307Z,19.48
2023-12-17T11:32:10.057Z,19.05
2023-12-17T11:34:37.536Z,18.85
2023-12-17T11:37:07.003Z,23.08
2023-12-17T11:39:37.063Z,21.00
2023-12-17T11:42:05.985Z,17.58
2023-12-17T11:44:33.197Z,19.90
2023-12-17T11:47:00.002Z,18.80
2023-12-17T11:49:29.937Z,17.60
2023-12-17T11:51:56.736Z,23.27
2023-12-17T11:54:24.851Z,15.82
2023-12-17T11:56:54.551Z,16.70
2023-12-17T11:59:36.778Z,15.90
2023-12-17T12:02:04.427Z,17.92
2023-12-17T12:04:42.392Z,14.52
2023-12-17T12:07:09.868Z,18.95
2023-12-17T12:09:36.879Z,18.88
2023-12-17T12:12:15.072Z,17.45
2023-12-17T12:14:41.952Z,16.52
2023-12-17T12:17:08.758Z,15.38
2023-12-17T12:19:48.549Z,18.00
2023-12-17T12:22:15.412Z,20.45
2023-12-17T12:24:42.418Z,18.33
2023-12-17T12:27:12.087Z,13.18
2023-12-17T12:29:39.262Z,16.13
2023-12-17T12:32:07.197Z,16.40
2023-12-17T12:34:40.372Z,14.80
2023-12-17T12:37:07.334Z,15.02
2023-12-17T12:39:59.210Z,20.63
2023-12-17T12:42:32.458Z,16.35
2023-12-17T12:44:59.408Z,20.65
2023-12-17T12:47:32.018Z,24.48
2023-12-17T12:49:59.125Z,20.10
2023-12-17T12:52:27.175Z,18.85
2023-12-17T12:54:55.385Z,19.98
2023-12-17T12:57:25.790Z,18.98
2023-12-17T12:59:55.489Z,24.02
2023-12-17T13:02:27.760Z,22.08
2023-12-17T13:04:54.744Z,20.13
2023-12-17T13:07:22.051Z,19.05
2023-12-17T13:10:01.016Z,19.35
2023-12-17T13:12:38.649Z,20.65
2023-12-17T13:15:05.938Z,19.17
2023-12-17T13:17:32.917Z,19.33
2023-12-17T13:20:00.951Z,20.15
2023-12-17T13:22:28.254Z,21.33
2023-12-17T13:24:55.368Z,19.25
2023-12-17T13:27:22.162Z,14.93
2023-12-17T13:29:48.936Z,16.80
2023-12-17T13:32:15.733Z,16.17
2023-12-17T13:34:43.663Z,15.45
2023-12-17T13:37:14.307Z,18.00
2023-12-17T13:39:44.175Z,16.05
2023-12-17T13:42:10.939Z,14.65
2023-12-17T13:44:38.329Z,14.95
2023-12-17T13:47:05.196Z,18.95
2023-12-17T13:49:38.276Z,14.20
2023-12-17T13:52:05.582Z,15.75
2023-12-17T13:54:33.528Z,18.05
2023-12-17T13:57:01.153Z,15.55
2023-12-17T13:59:28.073Z,18.73
2023-12-17T14:01:54.785Z,18.90
2023-12-17T14:04:22.260Z,16.33
2023-12-17T14:06:49.709Z,18.25
2023-12-17T14:09:16.864Z,19.25
2023-12-17T14:11:48.103Z,15.18
2023-12-17T14:14:14.864Z,17.45
2023-12-17T14:16:43.277Z,19.63
2023-12-17T14:19:12.899Z,20.52
2023-12-17T14:21:39.778Z,16.25
2023-12-17T14:24:09.465Z,18.33
2023-12-17T14:26:40.099Z,21.83
2023-12-17T14:29:07.353Z,16.33
2023-12-17T14:31:35.719Z,19.63
2023-12-17T14:34:08.182Z,16.38
2023-12-17T14:36:38.508Z,16.42
2023-12-17T14:39:06.074Z,25.35
2023-12-17T14:41:33.036Z,17.08
2023-12-17T14:43:59.848Z,19.00
2023-12-17T14:46:29.384Z,15.02
2023-12-17T14:48:56.353Z,20.92
2023-12-17T14:51:23.713Z,18.33
2023-12-17T14:53:55.974Z,19.15
2023-12-17T14:56:25.659Z,17.42
2023-12-17T14:58:57.639Z,19.00
2023-12-17T15:01:31.729Z,17.00
2023-12-17T15:04:02.203Z,16.00
2023-12-17T15:06:29.194Z,20.52
2023-12-17T15:08:56.853Z,20.73
2023-12-17T15:11:24.016Z,22.52
2023-12-17T15:13:50.746Z,17.80
2023-12-17T15:16:17.765Z,18.23
2023-12-17T15:18:44.932Z,16.95
2023-12-17T15:21:16.756Z,20.02
2023-12-17T15:23:43.704Z,19.13
2023-12-17T15:26:11.032Z,21.83
2023-12-17T15:28:38.348Z,17.02
2023-12-17T15:31:05.676Z,20.60
2023-12-17T15:33:33.218Z,20.70
2023-12-17T15:36:00.247Z,21.42
2023-12-17T15:38:27.170Z,17.98
2023-12-17T15:40:54.548Z,21.48
2023-12-17T15:43:21.391Z,24.35
2023-12-17T15:45:48.200Z,21.58
2023-12-17T15:48:15.129Z,19.30
2023-12-17T15:50:43.959Z,22.13
2023-12-17T15:53:10.775Z,24.13
2023-12-17T15:55:37.511Z,20.08
2023-12-17T15:58:04.378Z,27.40
2023-12-17T16:00:31.159Z,21.23
2023-12-17T16:02:58.266Z,19.50
2023-12-17T16:05:25.648Z,18.42
2023-12-17T16:07:56.124Z,21.45
2023-12-17T16:10:25.728Z,21.73
2023-12-17T16:12:53.595Z,22.58
2023-12-17T16:15:21.546Z,19.63
2023-12-17T16:17:49.545Z,28.80
2023-12-17T16:20:17.668Z,27.45
2023-12-17T16:22:47.051Z,24.35
2023-12-17T16:25:14.033Z,21.85
2023-12-17T16:27:40.968Z,27.52
2023-12-17T16:30:11.562Z,30.48
2023-12-17T16:32:40.003Z,34.58
2023-12-17T16:35:09.818Z,25.20
2023-12-17T16:37:40.143Z,33.17
2023-12-17T16:40:09.935Z,30.50
2023-12-17T16:42:36.795Z,32.83
2023-12-17T16:45:04.619Z,24.50
2023-12-17T16:47:31.641Z,32.72
2023-12-17T16:50:04.245Z,31.02
2023-12-17T16:52:31.241Z,30.98
2023-12-17T16:54:58.610Z,33.22
2023-12-17T16:57:26.004Z,27.45
2023-12-17T16:59:55.806Z,41.40
2023-12-17T17:02:22.585Z,29.73
2023-12-17T17:04:50.132Z,33.47
2023-12-17T17:07:17.898Z,33.88
2023-12-17T17:09:48.918Z,32.17
2023-12-17T17:12:15.727Z,27.27
2023-12-17T17:14:45.293Z,44.25
2023-12-17T17:17:12.142Z,30.08
2023-12-17T17:19:41.953Z,45.28
2023-12-17T17:22:11.899Z,46.10
2023-12-17T17:24:40.100Z,38.13
2023-12-17T17:27:09.626Z,41.10
2023-12-17T17:29:37.526Z,41.83
2023-12-17T17:32:05.751Z,36.50
2023-12-17T17:34:35.527Z,42.50
2023-12-17T17:37:04.501Z,32.78
2023-12-17T17:39:34.176Z,40.22
2023-12-17T17:42:01.106Z,48.53
2023-12-17T17:44:32.617Z,38.75
2023-12-17T17:46:59.669Z,55.30
2023-12-17T17:49:26.800Z,55.95
2023-12-17T17:51:53.572Z,45.47
2023-12-17T17:54:21.160Z,41.85
2023-12-17T17:56:48.917Z,40.22
2023-12-17T17:59:15.638Z,42.60
2023-12-17T18:01:44.150Z,37.40
2023-12-17T18:04:11.003Z,38.42
2023-12-17T18:06:38.048Z,39.63
2023-12-17T18:09:04.833Z,38.85
2023-12-17T18:11:31.935Z,44.08
2023-12-17T18:13:59.582Z,41.92
2023-12-17T18:16:26.905Z,40.78
2023-12-17T18:18:53.840Z,46.58
2023-12-17T18:21:23.222Z,40.83
2023-12-17T18:23:53.179Z,46.13
2023-12-17T18:26:23.921Z,41.17
2023-12-17T18:28:54.644Z,47.28
2023-12-17T18:31:21.449Z,42.58
2023-12-17T18:33:48.417Z,41.28
2023-12-17T18:36:15.395Z,43.03
2023-12-17T18:38:46.428Z,50.42
2023-12-17T18:41:19.540Z,52.88
2023-12-17T18:43:47.489Z,53.45
2023-12-17T18:46:15.850Z,38.70
2023-12-17T18:48:45.718Z,31.25
2023-12-17T18:51:12.797Z,34.08
2023-12-17T18:53:40.450Z,26.45
2023-12-17T18:56:07.866Z,36.47
2023-12-17T18:58:34.927Z,33.80
2023-12-17T19:01:01.878Z,29.70
2023-12-17T19:03:29.062Z,34.53
2023-12-17T19:05:56.042Z,28.58
2023-12-17T19:08:22.912Z,26.58
2023-12-17T19:10:49.728Z,31.98
2023-12-17T19:13:18.416Z,26.55
2023-12-17T19:15:46.536Z,26.17
2023-12-17T19:18:13.586Z,31.38
2023-12-17T19:20:41.338Z,27.23
2023-12-17T19:23:08.291Z,33.17
2023-12-17T19:25:35.266Z,27.67
2023-12-17T19:28:02.468Z,31.65
2023-12-17T19:30:29.555Z,40.13
2023-12-17T19:32:57.009Z,46.40
2023-12-17T19:35:24.005Z,31.33
2023-12-17T19:37:52.511Z,30.58
2023-12-17T19:40:20.406Z,32.28
2023-12-17T19:42:47.292Z,35.40
2023-12-17T19:45:15.997Z,32.55
2023-12-17T19:47:46.492Z,25.63
2023-12-17T19:50:18.007Z,36.60
2023-12-17T19:52:47.555Z,23.73
2023-12-17T19:55:16.614Z,22.27
2023-12-17T19:57:43.708Z,21.33
2023-12-17T20:00:12.093Z,35.85
2023-12-17T20:02:52.416Z,43.78
2023-12-17T20:05:21.977Z,34.42
2023-12-17T20:07:50.259Z,18.08
2023-12-17T20:10:22.870Z,25.00
2023-12-17T20:12:52.804Z,21.55
2023-12-17T20:15:23.328Z,23.27
2023-12-17T20:17:50.237Z,18.75
2023-12-17T20:20:19.700Z,18.92
2023-12-17T20:22:47.022Z,13.73
2023-12-17T20:25:13.747Z,18.55
2023-12-17T20:27:43.204Z,14.05
2023-12-17T20:30:10.682Z,16.30
2023-12-17T20:32:37.591Z,16.73
2023-12-17T20:35:05.290Z,22.75
2023-12-17T20:37:34.314Z,22.48
2023-12-17T20:40:01.048Z,17.05
2023-12-17T20:42:33.909Z,14.30
2023-12-17T20:45:00.819Z,30.23
2023-12-17T20:47:27.877Z,15.77
2023-12-17T20:49:54.890Z,18.27
2023-12-17T20:52:21.682Z,16.23
2023-12-17T20:54:58.540Z,14.13
2023-12-17T20:57:31.525Z,20.48
2023-12-17T20:59:58.995Z,18.40
2023-12-17T21:02:25.833Z,21.05
2023-12-17T21:04:52.752Z,16.92
2023-12-17T21:07:21.608Z,15.63
2023-12-17T21:09:48.906Z,16.20
2023-12-17T21:12:15.836Z,15.13
2023-12-17T21:14:42.825Z,16.30
2023-12-17T21:17:09.984Z,14.65
2023-12-17T21:19:39.761Z,22.02
2023-12-17T21:22:06.949Z,18.63
2023-12-17T21:24:35.102Z,13.40
2023-12-17T21:27:03.788Z,16.88
2023-12-17T21:29:31.272Z,14.40
2023-12-17T21:31:58.048Z,17.50
2023-12-17T21:34:24.858Z,16.83
2023-12-17T21:36:51.727Z,21.83
2023-12-17T21:39:19.146Z,14.48
2023-12-17T21:41:47.383Z,18.95
2023-12-17T21:44:14.241Z,12.40
2023-12-17T21:46:41.124Z,17.35
2023-12-17T21:49:10.824Z,14.10
2023-12-17T21:51:38.799Z,16.08
2023-12-17T21:54:05.666Z,10.52
2023-12-17T21:56:33.298Z,18.52
2023-12-17T21:59:03.390Z,13.35
2023-12-17T22:01:30.376Z,11.68
2023-12-17T22:03:59.975Z,10.32
2023-12-17T22:06:29.401Z,7.93
2023-12-17T22:09:01.121Z,8.15
2023-12-17T22:11:32.753Z,8.30
2023-12-17T22:13:59.594Z,11.65
2023-12-17T22:16:26.708Z,6.13
2023-12-17T22:18:56.384Z,12.07
2023-12-17T22:21:27.263Z,8.95
2023-12-17T22:23:54.128Z,13.60
2023-12-17T22:26:31.290Z,11.48
2023-12-17T22:28:58.130Z,12.10
2023-12-17T22:31:25.037Z,8.52
2023-12-17T22:33:51.826Z,9.95
2023-12-17T22:36:18.769Z,8.32
2023-12-17T22:38:52.693Z,9.27
2023-12-17T22:41:22.654Z,7.93
2023-12-17T22:43:49.509Z,7.18
2023-12-17T22:46:20.222Z,9.52
2023-12-17T22:48:47.289Z,9.80
2023-12-17T22:51:17.411Z,6.97
2023-12-17T22:53:44.881Z,7.63
2023-12-17T22:56:11.604Z,6.65
2023-12-17T22:58:38.900Z,13.18
2023-12-17T23:01:05.869Z,12.20
2023-12-17T23:03:33.048Z,7.28
2023-12-17T23:05:59.866Z,9.23
2023-12-17T23:08:27.289Z,7.22
2023-12-17T23:10:54.147Z,7.15
2023-12-17T23:13:20.868Z,7.15
2023-12-17T23:15:47.696Z,10.35
2023-12-17T23:18:17.399Z,5.88
2023-12-17T23:20:44.741Z,5.90
2023-12-17T23:23:11.476Z,7.50
2023-12-17T23:25:38.954Z,7.70
2023-12-17T23:28:06.175Z,10.75
2023-12-17T23:30:35.744Z,7.45
2023-12-17T23:33:03.291Z,12.00
2023-12-17T23:35:30.181Z,7.10
2023-12-17T23:37:56.826Z,9.35
2023-12-17T23:40:23.548Z,6.10
2023-12-17T23:42:50.717Z,6.18
2023-12-17T23:45:17.827Z,8.18
2023-12-17T23:47:44.824Z,7.75
2023-12-17T23:50:11.751Z,8.80
2023-12-17T23:52:38.859Z,6.55
2023-12-17T23:55:10.792Z,8.55
2023-12-17T23:57:37.876Z,10.85
